Terminal Aerodrome Forecast
Issued by NWS Wilmington, OH

Current Version | Previous Version | Graphics & Text | Print | Product List | Glossary On
Versions: 1 2 3 4 5 6 7 8 9 10 11 12 13 14 15 16 17 18
912
FTUS41 KILN 250417 AAC
TAFDAY
TAF AMD
KDAY 250417Z 2504/2524 27015G25KT P6SM OVC040
      TEMPO 2504/2506 BKN015
     FM251400 26017G27KT P6SM OVC025
     FM251900 27017G27KT P6SM OVC035=

USA.gov is the U.S. government's official web portal to all federal, state and local government web resources and services.